sensor_id;sensor_type;location;lat;lon;timestamp;P1;durP1;ratioP1;P2;durP2;ratioP2
14748;SDS011;7466;53.574;9.976;2023-02-26T00:00:08;3.23;;;2.30;;
14748;SDS011;7466;53.574;9.976;2023-02-26T00:02:39;4.83;;;2.00;;
14748;SDS011;7466;53.574;9.976;2023-02-26T00:05:06;5.27;;;2.10;;
14748;SDS011;7466;53.574;9.976;2023-02-26T00:07:34;5.47;;;2.30;;
14748;SDS011;7466;53.574;9.976;2023-02-26T00:10:02;7.50;;;2.60;;
14748;SDS011;7466;53.574;9.976;2023-02-26T00:12:30;5.40;;;2.33;;
14748;SDS011;7466;53.574;9.976;2023-02-26T00:14:59;6.40;;;2.27;;
14748;SDS011;7466;53.574;9.976;2023-02-26T00:17:31;6.80;;;2.40;;
14748;SDS011;7466;53.574;9.976;2023-02-26T00:20:06;3.53;;;2.30;;
14748;SDS011;7466;53.574;9.976;2023-02-26T00:22:36;5.87;;;2.43;;
14748;SDS011;7466;53.574;9.976;2023-02-26T00:25:03;3.80;;;2.70;;
14748;SDS011;7466;53.574;9.976;2023-02-26T00:27:30;5.47;;;2.77;;
14748;SDS011;7466;53.574;9.976;2023-02-26T00:29:59;6.47;;;2.57;;
14748;SDS011;7466;53.574;9.976;2023-02-26T00:32:27;5.30;;;2.30;;
14748;SDS011;7466;53.574;9.976;2023-02-26T00:34:55;2.80;;;2.10;;
14748;SDS011;7466;53.574;9.976;2023-02-26T00:37:26;5.80;;;2.23;;
14748;SDS011;7466;53.574;9.976;2023-02-26T00:40:03;3.97;;;2.37;;
14748;SDS011;7466;53.574;9.976;2023-02-26T00:42:46;5.47;;;1.93;;
14748;SDS011;7466;53.574;9.976;2023-02-26T00:45:15;2.73;;;2.17;;
14748;SDS011;7466;53.574;9.976;2023-02-26T00:47:46;5.03;;;2.37;;
14748;SDS011;7466;53.574;9.976;2023-02-26T00:50:18;5.07;;;1.90;;
14748;SDS011;7466;53.574;9.976;2023-02-26T00:52:56;5.90;;;2.23;;
14748;SDS011;7466;53.574;9.976;2023-02-26T00:55:29;2.73;;;1.97;;
14748;SDS011;7466;53.574;9.976;2023-02-26T00:57:56;5.97;;;2.07;;
14748;SDS011;7466;53.574;9.976;2023-02-26T01:00:24;3.10;;;2.20;;
14748;SDS011;7466;53.574;9.976;2023-02-26T01:02:52;6.87;;;2.27;;
14748;SDS011;7466;53.574;9.976;2023-02-26T01:05:19;3.80;;;2.27;;
14748;SDS011;7466;53.574;9.976;2023-02-26T01:07:50;6.73;;;2.37;;
14748;SDS011;7466;53.574;9.976;2023-02-26T01:10:24;4.83;;;2.10;;
14748;SDS011;7466;53.574;9.976;2023-02-26T01:12:51;2.37;;;2.10;;
14748;SDS011;7466;53.574;9.976;2023-02-26T01:15:21;5.50;;;2.20;;
14748;SDS011;7466;53.574;9.976;2023-02-26T01:17:50;5.07;;;1.97;;
14748;SDS011;7466;53.574;9.976;2023-02-26T01:20:21;5.03;;;2.27;;
14748;SDS011;7466;53.574;9.976;2023-02-26T01:22:53;7.10;;;2.00;;
14748;SDS011;7466;53.574;9.976;2023-02-26T01:25:23;4.57;;;2.20;;
14748;SDS011;7466;53.574;9.976;2023-02-26T01:27:53;6.63;;;1.83;;
14748;SDS011;7466;53.574;9.976;2023-02-26T01:30:22;3.13;;;1.60;;
14748;SDS011;7466;53.574;9.976;2023-02-26T01:32:52;3.57;;;1.80;;
14748;SDS011;7466;53.574;9.976;2023-02-26T01:35:29;4.03;;;1.80;;
14748;SDS011;7466;53.574;9.976;2023-02-26T01:38:05;4.47;;;1.80;;
14748;SDS011;7466;53.574;9.976;2023-02-26T01:43:50;3.70;;;1.63;;
14748;SDS011;7466;53.574;9.976;2023-02-26T01:46:25;5.33;;;1.90;;
14748;SDS011;7466;53.574;9.976;2023-02-26T01:49:03;6.60;;;1.80;;
14748;SDS011;7466;53.574;9.976;2023-02-26T01:51:40;3.67;;;1.50;;
14748;SDS011;7466;53.574;9.976;2023-02-26T01:54:10;3.63;;;1.50;;
14748;SDS011;7466;53.574;9.976;2023-02-26T01:56:37;2.13;;;1.50;;
14748;SDS011;7466;53.574;9.976;2023-02-26T01:59:05;2.40;;;1.77;;
14748;SDS011;7466;53.574;9.976;2023-02-26T02:01:35;2.80;;;1.70;;
14748;SDS011;7466;53.574;9.976;2023-02-26T02:04:05;4.23;;;1.47;;
14748;SDS011;7466;53.574;9.976;2023-02-26T02:06:36;2.93;;;1.80;;
14748;SDS011;7466;53.574;9.976;2023-02-26T02:09:04;2.70;;;1.60;;
14748;SDS011;7466;53.574;9.976;2023-02-26T02:11:32;4.13;;;1.73;;
14748;SDS011;7466;53.574;9.976;2023-02-26T02:14:00;2.43;;;1.80;;
14748;SDS011;7466;53.574;9.976;2023-02-26T02:16:39;2.23;;;1.53;;
14748;SDS011;7466;53.574;9.976;2023-02-26T02:22:23;3.83;;;1.90;;
14748;SDS011;7466;53.574;9.976;2023-02-26T02:25:10;5.33;;;2.00;;
14748;SDS011;7466;53.574;9.976;2023-02-26T02:27:50;3.83;;;2.10;;
14748;SDS011;7466;53.574;9.976;2023-02-26T02:30:27;2.90;;;1.70;;
14748;SDS011;7466;53.574;9.976;2023-02-26T02:33:04;4.50;;;2.00;;
14748;SDS011;7466;53.574;9.976;2023-02-26T02:35:39;2.57;;;1.90;;
14748;SDS011;7466;53.574;9.976;2023-02-26T02:38:10;4.47;;;1.73;;
14748;SDS011;7466;53.574;9.976;2023-02-26T02:40:42;3.37;;;1.97;;
14748;SDS011;7466;53.574;9.976;2023-02-26T02:43:14;3.67;;;2.17;;
14748;SDS011;7466;53.574;9.976;2023-02-26T02:45:43;3.83;;;2.13;;
14748;SDS011;7466;53.574;9.976;2023-02-26T02:48:17;4.10;;;1.90;;
14748;SDS011;7466;53.574;9.976;2023-02-26T02:50:50;4.30;;;1.93;;
14748;SDS011;7466;53.574;9.976;2023-02-26T02:53:23;2.40;;;1.87;;
14748;SDS011;7466;53.574;9.976;2023-02-26T02:55:53;2.10;;;1.90;;
14748;SDS011;7466;53.574;9.976;2023-02-26T02:58:24;2.33;;;1.90;;
14748;SDS011;7466;53.574;9.976;2023-02-26T03:00:58;5.80;;;2.17;;
14748;SDS011;7466;53.574;9.976;2023-02-26T03:03:29;5.63;;;2.17;;
14748;SDS011;7466;53.574;9.976;2023-02-26T03:05:59;4.27;;;2.13;;
14748;SDS011;7466;53.574;9.976;2023-02-26T03:08:26;3.10;;;2.17;;
14748;SDS011;7466;53.574;9.976;2023-02-26T03:10:56;2.83;;;1.77;;
14748;SDS011;7466;53.574;9.976;2023-02-26T03:13:23;3.43;;;1.93;;
14748;SDS011;7466;53.574;9.976;2023-02-26T03:15:54;2.40;;;2.20;;
14748;SDS011;7466;53.574;9.976;2023-02-26T03:18:36;4.23;;;2.00;;
14748;SDS011;7466;53.574;9.976;2023-02-26T03:21:16;5.13;;;2.00;;
14748;SDS011;7466;53.574;9.976;2023-02-26T03:23:53;5.63;;;2.00;;
14748;SDS011;7466;53.574;9.976;2023-02-26T03:26:26;3.30;;;1.80;;
14748;SDS011;7466;53.574;9.976;2023-02-26T03:28:58;3.20;;;2.07;;
14748;SDS011;7466;53.574;9.976;2023-02-26T03:31:30;6.50;;;1.97;;
14748;SDS011;7466;53.574;9.976;2023-02-26T03:34:05;2.53;;;1.97;;
14748;SDS011;7466;53.574;9.976;2023-02-26T03:36:39;4.93;;;2.00;;
14748;SDS011;7466;53.574;9.976;2023-02-26T03:39:13;4.80;;;2.23;;
14748;SDS011;7466;53.574;9.976;2023-02-26T03:41:45;2.77;;;2.00;;
14748;SDS011;7466;53.574;9.976;2023-02-26T03:44:17;6.77;;;2.10;;
14748;SDS011;7466;53.574;9.976;2023-02-26T03:46:51;2.40;;;1.80;;
14748;SDS011;7466;53.574;9.976;2023-02-26T03:49:24;3.47;;;1.70;;
14748;SDS011;7466;53.574;9.976;2023-02-26T03:51:53;7.23;;;2.00;;
14748;SDS011;7466;53.574;9.976;2023-02-26T03:54:22;4.57;;;2.00;;
14748;SDS011;7466;53.574;9.976;2023-02-26T03:56:52;3.60;;;1.80;;
14748;SDS011;7466;53.574;9.976;2023-02-26T03:59:19;3.70;;;2.10;;
14748;SDS011;7466;53.574;9.976;2023-02-26T04:01:47;5.43;;;1.97;;
14748;SDS011;7466;53.574;9.976;2023-02-26T04:04:20;3.67;;;1.73;;
14748;SDS011;7466;53.574;9.976;2023-02-26T04:06:51;1.70;;;1.50;;
14748;SDS011;7466;53.574;9.976;2023-02-26T04:09:19;2.87;;;1.60;;
14748;SDS011;7466;53.574;9.976;2023-02-26T04:11:48;3.50;;;1.70;;
14748;SDS011;7466;53.574;9.976;2023-02-26T04:14:16;3.23;;;1.70;;
14748;SDS011;7466;53.574;9.976;2023-02-26T04:16:43;3.73;;;1.70;;
14748;SDS011;7466;53.574;9.976;2023-02-26T04:19:10;3.07;;;1.60;;
14748;SDS011;7466;53.574;9.976;2023-02-26T04:21:39;5.93;;;1.60;;
14748;SDS011;7466;53.574;9.976;2023-02-26T04:24:06;3.23;;;1.30;;
14748;SDS011;7466;53.574;9.976;2023-02-26T04:26:33;4.27;;;1.80;;
14748;SDS011;7466;53.574;9.976;2023-02-26T04:29:00;5.83;;;1.77;;
14748;SDS011;7466;53.574;9.976;2023-02-26T04:31:26;2.00;;;1.47;;
14748;SDS011;7466;53.574;9.976;2023-02-26T04:33:53;3.57;;;1.80;;
14748;SDS011;7466;53.574;9.976;2023-02-26T04:36:20;2.23;;;1.60;;
14748;SDS011;7466;53.574;9.976;2023-02-26T04:38:48;3.83;;;1.43;;
14748;SDS011;7466;53.574;9.976;2023-02-26T04:41:15;3.10;;;1.40;;
14748;SDS011;7466;53.574;9.976;2023-02-26T04:43:42;5.93;;;1.87;;
14748;SDS011;7466;53.574;9.976;2023-02-26T04:46:09;2.00;;;1.67;;
14748;SDS011;7466;53.574;9.976;2023-02-26T04:48:35;3.27;;;1.60;;
14748;SDS011;7466;53.574;9.976;2023-02-26T04:51:02;5.20;;;2.00;;
14748;SDS011;7466;53.574;9.976;2023-02-26T04:53:29;3.97;;;1.80;;
14748;SDS011;7466;53.574;9.976;2023-02-26T04:55:57;4.47;;;1.70;;
14748;SDS011;7466;53.574;9.976;2023-02-26T04:58:24;6.10;;;1.73;;
14748;SDS011;7466;53.574;9.976;2023-02-26T05:00:51;5.10;;;1.77;;
14748;SDS011;7466;53.574;9.976;2023-02-26T05:03:20;5.10;;;1.80;;
14748;SDS011;7466;53.574;9.976;2023-02-26T05:05:47;4.80;;;1.83;;
14748;SDS011;7466;53.574;9.976;2023-02-26T05:08:14;5.13;;;1.93;;
14748;SDS011;7466;53.574;9.976;2023-02-26T05:10:41;2.30;;;1.67;;
14748;SDS011;7466;53.574;9.976;2023-02-26T05:13:09;5.70;;;2.10;;
14748;SDS011;7466;53.574;9.976;2023-02-26T05:15:36;4.07;;;1.97;;
14748;SDS011;7466;53.574;9.976;2023-02-26T05:18:03;1.93;;;1.77;;
14748;SDS011;7466;53.574;9.976;2023-02-26T05:20:29;2.43;;;2.13;;
14748;SDS011;7466;53.574;9.976;2023-02-26T05:22:56;2.60;;;2.00;;
14748;SDS011;7466;53.574;9.976;2023-02-26T05:25:23;2.10;;;1.53;;
14748;SDS011;7466;53.574;9.976;2023-02-26T05:27:50;3.70;;;1.93;;
14748;SDS011;7466;53.574;9.976;2023-02-26T05:30:18;3.80;;;2.17;;
14748;SDS011;7466;53.574;9.976;2023-02-26T05:32:45;2.00;;;1.80;;
14748;SDS011;7466;53.574;9.976;2023-02-26T05:35:12;3.70;;;1.70;;
14748;SDS011;7466;53.574;9.976;2023-02-26T05:37:39;3.07;;;1.67;;
14748;SDS011;7466;53.574;9.976;2023-02-26T05:40:08;5.37;;;1.80;;
14748;SDS011;7466;53.574;9.976;2023-02-26T05:42:43;3.30;;;1.77;;
14748;SDS011;7466;53.574;9.976;2023-02-26T05:45:10;3.87;;;2.17;;
14748;SDS011;7466;53.574;9.976;2023-02-26T05:47:38;3.97;;;2.43;;
14748;SDS011;7466;53.574;9.976;2023-02-26T05:50:05;5.63;;;1.90;;
14748;SDS011;7466;53.574;9.976;2023-02-26T05:52:33;2.80;;;2.00;;
14748;SDS011;7466;53.574;9.976;2023-02-26T05:55:00;2.53;;;1.70;;
14748;SDS011;7466;53.574;9.976;2023-02-26T05:57:32;4.90;;;2.27;;
14748;SDS011;7466;53.574;9.976;2023-02-26T05:59:59;2.90;;;2.10;;
14748;SDS011;7466;53.574;9.976;2023-02-26T06:02:32;2.20;;;1.67;;
14748;SDS011;7466;53.574;9.976;2023-02-26T06:05:01;4.07;;;1.97;;
14748;SDS011;7466;53.574;9.976;2023-02-26T06:07:29;5.30;;;1.83;;
14748;SDS011;7466;53.574;9.976;2023-02-26T06:09:55;5.30;;;2.13;;
14748;SDS011;7466;53.574;9.976;2023-02-26T06:12:22;4.43;;;2.20;;
14748;SDS011;7466;53.574;9.976;2023-02-26T06:14:59;1.67;;;1.27;;
14748;SDS011;7466;53.574;9.976;2023-02-26T06:17:26;5.23;;;2.00;;
14748;SDS011;7466;53.574;9.976;2023-02-26T06:19:54;4.30;;;1.60;;
14748;SDS011;7466;53.574;9.976;2023-02-26T06:22:22;2.90;;;1.67;;
14748;SDS011;7466;53.574;9.976;2023-02-26T06:24:49;3.70;;;1.97;;
14748;SDS011;7466;53.574;9.976;2023-02-26T06:27:16;4.30;;;2.23;;
14748;SDS011;7466;53.574;9.976;2023-02-26T06:29:43;3.00;;;1.70;;
14748;SDS011;7466;53.574;9.976;2023-02-26T06:32:10;3.43;;;1.60;;
14748;SDS011;7466;53.574;9.976;2023-02-26T06:34:37;2.77;;;1.70;;
14748;SDS011;7466;53.574;9.976;2023-02-26T06:37:04;4.13;;;1.70;;
14748;SDS011;7466;53.574;9.976;2023-02-26T06:39:32;4.17;;;1.80;;
14748;SDS011;7466;53.574;9.976;2023-02-26T06:41:59;3.30;;;1.60;;
14748;SDS011;7466;53.574;9.976;2023-02-26T06:44:26;5.87;;;2.40;;
14748;SDS011;7466;53.574;9.976;2023-02-26T06:46:53;3.43;;;2.00;;
14748;SDS011;7466;53.574;9.976;2023-02-26T06:49:20;6.13;;;2.00;;
14748;SDS011;7466;53.574;9.976;2023-02-26T06:51:47;2.03;;;1.43;;
14748;SDS011;7466;53.574;9.976;2023-02-26T06:54:14;5.80;;;1.80;;
14748;SDS011;7466;53.574;9.976;2023-02-26T06:56:42;1.73;;;1.53;;
14748;SDS011;7466;53.574;9.976;2023-02-26T06:59:09;1.83;;;1.73;;
14748;SDS011;7466;53.574;9.976;2023-02-26T07:01:36;2.30;;;1.60;;
14748;SDS011;7466;53.574;9.976;2023-02-26T07:04:03;2.50;;;1.50;;
14748;SDS011;7466;53.574;9.976;2023-02-26T07:06:30;4.07;;;1.80;;
14748;SDS011;7466;53.574;9.976;2023-02-26T07:08:57;4.43;;;1.80;;
14748;SDS011;7466;53.574;9.976;2023-02-26T07:11:24;3.83;;;1.80;;
14748;SDS011;7466;53.574;9.976;2023-02-26T07:13:53;4.83;;;2.17;;
14748;SDS011;7466;53.574;9.976;2023-02-26T07:16:20;3.37;;;2.07;;
14748;SDS011;7466;53.574;9.976;2023-02-26T07:18:47;15.13;;;2.10;;
14748;SDS011;7466;53.574;9.976;2023-02-26T07:21:14;2.70;;;1.93;;
14748;SDS011;7466;53.574;9.976;2023-02-26T07:23:40;3.17;;;1.60;;
14748;SDS011;7466;53.574;9.976;2023-02-26T07:26:07;10.10;;;1.67;;
14748;SDS011;7466;53.574;9.976;2023-02-26T07:28:34;1.70;;;1.60;;
14748;SDS011;7466;53.574;9.976;2023-02-26T07:31:03;3.60;;;2.27;;
14748;SDS011;7466;53.574;9.976;2023-02-26T07:33:32;2.43;;;2.00;;
14748;SDS011;7466;53.574;9.976;2023-02-26T07:36:00;6.30;;;2.13;;
14748;SDS011;7466;53.574;9.976;2023-02-26T07:38:27;3.83;;;2.10;;
14748;SDS011;7466;53.574;9.976;2023-02-26T07:40:53;3.20;;;1.90;;
14748;SDS011;7466;53.574;9.976;2023-02-26T07:43:21;2.77;;;2.10;;
14748;SDS011;7466;53.574;9.976;2023-02-26T07:45:48;4.40;;;1.83;;
14748;SDS011;7466;53.574;9.976;2023-02-26T07:48:17;5.83;;;2.20;;
14748;SDS011;7466;53.574;9.976;2023-02-26T07:50:51;3.70;;;1.93;;
14748;SDS011;7466;53.574;9.976;2023-02-26T07:53:18;4.90;;;1.97;;
14748;SDS011;7466;53.574;9.976;2023-02-26T07:55:45;3.77;;;2.23;;
14748;SDS011;7466;53.574;9.976;2023-02-26T07:58:12;3.10;;;2.00;;
14748;SDS011;7466;53.574;9.976;2023-02-26T08:00:41;2.63;;;1.97;;
14748;SDS011;7466;53.574;9.976;2023-02-26T08:03:08;3.67;;;1.90;;
14748;SDS011;7466;53.574;9.976;2023-02-26T08:05:36;3.63;;;2.00;;
14748;SDS011;7466;53.574;9.976;2023-02-26T08:08:03;3.90;;;1.90;;
14748;SDS011;7466;53.574;9.976;2023-02-26T08:10:30;2.10;;;2.00;;
14748;SDS011;7466;53.574;9.976;2023-02-26T08:12:56;6.33;;;1.87;;
14748;SDS011;7466;53.574;9.976;2023-02-26T08:15:23;5.93;;;1.93;;
14748;SDS011;7466;53.574;9.976;2023-02-26T08:17:51;5.97;;;2.33;;
14748;SDS011;7466;53.574;9.976;2023-02-26T08:20:18;2.00;;;1.80;;
14748;SDS011;7466;53.574;9.976;2023-02-26T08:22:47;2.77;;;1.97;;
14748;SDS011;7466;53.574;9.976;2023-02-26T08:25:15;3.07;;;2.00;;
14748;SDS011;7466;53.574;9.976;2023-02-26T08:27:42;2.13;;;1.60;;
14748;SDS011;7466;53.574;9.976;2023-02-26T08:30:10;4.30;;;1.70;;
14748;SDS011;7466;53.574;9.976;2023-02-26T08:32:37;3.07;;;2.40;;
14748;SDS011;7466;53.574;9.976;2023-02-26T08:35:06;3.03;;;2.10;;
14748;SDS011;7466;53.574;9.976;2023-02-26T08:37:33;4.10;;;2.60;;
14748;SDS011;7466;53.574;9.976;2023-02-26T08:40:02;3.13;;;1.97;;
14748;SDS011;7466;53.574;9.976;2023-02-26T08:42:29;3.07;;;1.63;;
14748;SDS011;7466;53.574;9.976;2023-02-26T08:44:56;2.20;;;2.00;;
14748;SDS011;7466;53.574;9.976;2023-02-26T08:47:23;2.90;;;1.87;;
14748;SDS011;7466;53.574;9.976;2023-02-26T08:49:50;2.00;;;1.63;;
14748;SDS011;7466;53.574;9.976;2023-02-26T08:52:17;2.63;;;1.60;;
14748;SDS011;7466;53.574;9.976;2023-02-26T08:54:44;2.10;;;1.50;;
14748;SDS011;7466;53.574;9.976;2023-02-26T08:57:12;2.67;;;1.73;;
14748;SDS011;7466;53.574;9.976;2023-02-26T08:59:39;2.80;;;1.50;;
14748;SDS011;7466;53.574;9.976;2023-02-26T09:02:06;5.17;;;2.03;;
14748;SDS011;7466;53.574;9.976;2023-02-26T09:04:34;2.83;;;1.70;;
14748;SDS011;7466;53.574;9.976;2023-02-26T09:07:01;2.60;;;1.70;;
14748;SDS011;7466;53.574;9.976;2023-02-26T09:09:30;1.90;;;1.27;;
14748;SDS011;7466;53.574;9.976;2023-02-26T09:11:57;3.23;;;1.30;;
14748;SDS011;7466;53.574;9.976;2023-02-26T09:14:25;1.67;;;1.17;;
14748;SDS011;7466;53.574;9.976;2023-02-26T09:16:52;3.33;;;1.20;;
14748;SDS011;7466;53.574;9.976;2023-02-26T09:19:21;2.00;;;1.40;;
14748;SDS011;7466;53.574;9.976;2023-02-26T09:21:48;4.73;;;1.47;;
14748;SDS011;7466;53.574;9.976;2023-02-26T09:26:52;1.33;;;1.13;;
14748;SDS011;7466;53.574;9.976;2023-02-26T09:29:20;1.50;;;1.30;;
14748;SDS011;7466;53.574;9.976;2023-02-26T09:31:49;1.13;;;1.00;;
14748;SDS011;7466;53.574;9.976;2023-02-26T09:34:15;1.30;;;1.17;;
14748;SDS011;7466;53.574;9.976;2023-02-26T09:36:42;2.00;;;1.40;;
14748;SDS011;7466;53.574;9.976;2023-02-26T09:39:10;1.13;;;1.03;;
14748;SDS011;7466;53.574;9.976;2023-02-26T09:41:55;3.10;;;1.30;;
14748;SDS011;7466;53.574;9.976;2023-02-26T09:44:26;3.53;;;1.30;;
14748;SDS011;7466;53.574;9.976;2023-02-26T09:46:58;2.07;;;1.00;;
14748;SDS011;7466;53.574;9.976;2023-02-26T09:49:36;3.00;;;1.60;;
14748;SDS011;7466;53.574;9.976;2023-02-26T09:52:15;1.67;;;1.10;;
14748;SDS011;7466;53.574;9.976;2023-02-26T09:54:48;2.70;;;1.50;;
14748;SDS011;7466;53.574;9.976;2023-02-26T09:57:20;3.50;;;1.00;;
14748;SDS011;7466;53.574;9.976;2023-02-26T09:59:53;0.93;;;0.90;;
14748;SDS011;7466;53.574;9.976;2023-02-26T10:02:23;1.57;;;1.10;;
14748;SDS011;7466;53.574;9.976;2023-02-26T10:04:59;4.23;;;1.10;;
14748;SDS011;7466;53.574;9.976;2023-02-26T10:07:37;1.30;;;1.10;;
14748;SDS011;7466;53.574;9.976;2023-02-26T10:10:13;2.53;;;1.10;;
14748;SDS011;7466;53.574;9.976;2023-02-26T10:12:46;1.47;;;1.10;;
14748;SDS011;7466;53.574;9.976;2023-02-26T10:15:21;1.77;;;0.97;;
14748;SDS011;7466;53.574;9.976;2023-02-26T10:18:01;2.00;;;0.90;;
14748;SDS011;7466;53.574;9.976;2023-02-26T10:20:34;2.07;;;0.80;;
14748;SDS011;7466;53.574;9.976;2023-02-26T10:23:10;1.83;;;1.00;;
14748;SDS011;7466;53.574;9.976;2023-02-26T10:25:44;1.17;;;1.00;;
14748;SDS011;7466;53.574;9.976;2023-02-26T10:28:23;3.83;;;1.00;;
14748;SDS011;7466;53.574;9.976;2023-02-26T10:31:08;1.50;;;0.93;;
14748;SDS011;7466;53.574;9.976;2023-02-26T10:33:45;1.50;;;1.20;;
14748;SDS011;7466;53.574;9.976;2023-02-26T10:36:16;1.57;;;0.97;;
14748;SDS011;7466;53.574;9.976;2023-02-26T10:38:51;1.27;;;0.97;;
14748;SDS011;7466;53.574;9.976;2023-02-26T10:41:22;3.23;;;0.90;;
14748;SDS011;7466;53.574;9.976;2023-02-26T10:43:55;0.83;;;0.83;;
14748;SDS011;7466;53.574;9.976;2023-02-26T10:46:38;0.80;;;0.60;;
14748;SDS011;7466;53.574;9.976;2023-02-26T10:49:20;2.13;;;0.80;;
14748;SDS011;7466;53.574;9.976;2023-02-26T10:52:04;1.40;;;0.90;;
14748;SDS011;7466;53.574;9.976;2023-02-26T10:54:39;1.30;;;0.83;;
14748;SDS011;7466;53.574;9.976;2023-02-26T10:57:14;1.50;;;0.80;;
14748;SDS011;7466;53.574;9.976;2023-02-26T10:59:49;0.70;;;0.70;;
14748;SDS011;7466;53.574;9.976;2023-02-26T11:02:26;1.03;;;0.77;;
14748;SDS011;7466;53.574;9.976;2023-02-26T11:05:01;2.67;;;0.90;;
14748;SDS011;7466;53.574;9.976;2023-02-26T11:07:30;3.00;;;1.00;;
14748;SDS011;7466;53.574;9.976;2023-02-26T11:09:58;4.27;;;1.37;;
14748;SDS011;7466;53.574;9.976;2023-02-26T11:12:25;1.47;;;1.10;;
14748;SDS011;7466;53.574;9.976;2023-02-26T11:14:52;1.67;;;1.20;;
14748;SDS011;7466;53.574;9.976;2023-02-26T11:17:20;2.43;;;1.30;;
14748;SDS011;7466;53.574;9.976;2023-02-26T11:19:52;2.70;;;0.97;;
14748;SDS011;7466;53.574;9.976;2023-02-26T11:22:26;0.83;;;0.67;;
14748;SDS011;7466;53.574;9.976;2023-02-26T11:24:57;2.53;;;0.80;;
14748;SDS011;7466;53.574;9.976;2023-02-26T11:27:25;2.70;;;1.10;;
14748;SDS011;7466;53.574;9.976;2023-02-26T11:29:56;2.70;;;0.80;;
14748;SDS011;7466;53.574;9.976;2023-02-26T11:32:28;1.30;;;0.80;;
14748;SDS011;7466;53.574;9.976;2023-02-26T11:34:56;1.53;;;1.00;;
14748;SDS011;7466;53.574;9.976;2023-02-26T11:37:27;1.30;;;1.03;;
14748;SDS011;7466;53.574;9.976;2023-02-26T11:39:56;1.73;;;1.27;;
14748;SDS011;7466;53.574;9.976;2023-02-26T11:42:34;0.90;;;0.90;;
14748;SDS011;7466;53.574;9.976;2023-02-26T11:45:03;1.87;;;1.00;;
14748;SDS011;7466;53.574;9.976;2023-02-26T11:47:31;1.50;;;1.00;;
14748;SDS011;7466;53.574;9.976;2023-02-26T11:50:00;3.13;;;1.20;;
14748;SDS011;7466;53.574;9.976;2023-02-26T11:52:33;2.50;;;0.93;;
14748;SDS011;7466;53.574;9.976;2023-02-26T11:55:03;1.10;;;1.00;;
14748;SDS011;7466;53.574;9.976;2023-02-26T11:57:32;2.80;;;1.27;;
14748;SDS011;7466;53.574;9.976;2023-02-26T12:00:00;3.10;;;1.40;;
14748;SDS011;7466;53.574;9.976;2023-02-26T12:02:41;2.77;;;1.40;;
14748;SDS011;7466;53.574;9.976;2023-02-26T12:05:09;2.67;;;1.03;;
14748;SDS011;7466;53.574;9.976;2023-02-26T12:07:50;2.10;;;1.50;;
14748;SDS011;7466;53.574;9.976;2023-02-26T12:10:33;2.07;;;1.40;;
14748;SDS011;7466;53.574;9.976;2023-02-26T12:13:07;1.57;;;1.40;;
14748;SDS011;7466;53.574;9.976;2023-02-26T12:15:45;2.37;;;1.50;;
14748;SDS011;7466;53.574;9.976;2023-02-26T12:18:28;4.33;;;1.40;;
14748;SDS011;7466;53.574;9.976;2023-02-26T12:21:05;2.13;;;1.33;;
14748;SDS011;7466;53.574;9.976;2023-02-26T12:23:55;2.83;;;1.30;;
14748;SDS011;7466;53.574;9.976;2023-02-26T12:26:40;3.00;;;1.40;;
14748;SDS011;7466;53.574;9.976;2023-02-26T12:29:23;2.10;;;1.23;;
14748;SDS011;7466;53.574;9.976;2023-02-26T12:32:16;3.17;;;1.80;;
14748;SDS011;7466;53.574;9.976;2023-02-26T12:35:09;1.83;;;1.30;;
14748;SDS011;7466;53.574;9.976;2023-02-26T12:37:52;1.40;;;1.07;;
14748;SDS011;7466;53.574;9.976;2023-02-26T12:43:37;3.87;;;1.10;;
14748;SDS011;7466;53.574;9.976;2023-02-26T12:46:14;3.13;;;1.13;;
14748;SDS011;7466;53.574;9.976;2023-02-26T12:49:10;2.10;;;1.40;;
14748;SDS011;7466;53.574;9.976;2023-02-26T12:52:05;1.40;;;1.20;;
14748;SDS011;7466;53.574;9.976;2023-02-26T12:54:56;3.90;;;1.33;;
14748;SDS011;7466;53.574;9.976;2023-02-26T12:57:43;1.20;;;1.07;;
14748;SDS011;7466;53.574;9.976;2023-02-26T13:00:26;2.27;;;1.60;;
14748;SDS011;7466;53.574;9.976;2023-02-26T13:03:21;4.40;;;1.73;;
14748;SDS011;7466;53.574;9.976;2023-02-26T13:06:13;2.57;;;1.40;;
14748;SDS011;7466;53.574;9.976;2023-02-26T13:08:57;3.37;;;1.40;;
14748;SDS011;7466;53.574;9.976;2023-02-26T13:11:34;3.20;;;1.40;;
14748;SDS011;7466;53.574;9.976;2023-02-26T13:14:17;1.70;;;1.20;;
14748;SDS011;7466;53.574;9.976;2023-02-26T13:16:53;2.10;;;1.20;;
14748;SDS011;7466;53.574;9.976;2023-02-26T13:19:30;3.07;;;1.30;;
14748;SDS011;7466;53.574;9.976;2023-02-26T13:22:10;2.17;;;1.33;;
14748;SDS011;7466;53.574;9.976;2023-02-26T13:24:42;4.87;;;1.67;;
14748;SDS011;7466;53.574;9.976;2023-02-26T13:27:12;2.03;;;1.30;;
14748;SDS011;7466;53.574;9.976;2023-02-26T13:29:43;2.97;;;1.20;;
14748;SDS011;7466;53.574;9.976;2023-02-26T13:32:15;1.80;;;1.30;;
14748;SDS011;7466;53.574;9.976;2023-02-26T13:34:47;3.00;;;1.40;;
14748;SDS011;7466;53.574;9.976;2023-02-26T13:37:21;3.43;;;1.30;;
14748;SDS011;7466;53.574;9.976;2023-02-26T13:42:46;2.53;;;1.30;;
14748;SDS011;7466;53.574;9.976;2023-02-26T13:45:33;4.07;;;1.23;;
14748;SDS011;7466;53.574;9.976;2023-02-26T13:48:12;2.13;;;1.10;;
14748;SDS011;7466;53.574;9.976;2023-02-26T13:50:48;1.90;;;1.10;;
14748;SDS011;7466;53.574;9.976;2023-02-26T13:53:34;2.73;;;1.47;;
14748;SDS011;7466;53.574;9.976;2023-02-26T13:56:17;3.47;;;1.30;;
14748;SDS011;7466;53.574;9.976;2023-02-26T13:58:50;3.97;;;1.50;;
14748;SDS011;7466;53.574;9.976;2023-02-26T14:01:33;3.30;;;1.20;;
14748;SDS011;7466;53.574;9.976;2023-02-26T14:04:23;2.83;;;1.30;;
14748;SDS011;7466;53.574;9.976;2023-02-26T14:06:56;2.27;;;1.37;;
14748;SDS011;7466;53.574;9.976;2023-02-26T14:12:25;1.77;;;1.20;;
14748;SDS011;7466;53.574;9.976;2023-02-26T14:15:17;2.90;;;1.40;;
14748;SDS011;7466;53.574;9.976;2023-02-26T14:18:02;4.73;;;1.37;;
14748;SDS011;7466;53.574;9.976;2023-02-26T14:20:32;2.87;;;1.50;;
14748;SDS011;7466;53.574;9.976;2023-02-26T14:26:03;2.03;;;1.57;;
14748;SDS011;7466;53.574;9.976;2023-02-26T14:28:55;2.20;;;1.30;;
14748;SDS011;7466;53.574;9.976;2023-02-26T14:31:24;3.30;;;1.27;;
14748;SDS011;7466;53.574;9.976;2023-02-26T14:36:45;2.67;;;1.40;;
14748;SDS011;7466;53.574;9.976;2023-02-26T14:42:03;2.87;;;1.30;;
14748;SDS011;7466;53.574;9.976;2023-02-26T14:44:36;4.77;;;1.30;;
14748;SDS011;7466;53.574;9.976;2023-02-26T14:47:07;2.87;;;1.10;;
14748;SDS011;7466;53.574;9.976;2023-02-26T14:49:36;2.73;;;1.23;;
14748;SDS011;7466;53.574;9.976;2023-02-26T14:52:12;2.37;;;1.30;;
14748;SDS011;7466;53.574;9.976;2023-02-26T14:55:12;2.90;;;1.20;;
14748;SDS011;7466;53.574;9.976;2023-02-26T14:58:15;3.00;;;1.13;;
14748;SDS011;7466;53.574;9.976;2023-02-26T15:01:03;1.97;;;1.00;;
14748;SDS011;7466;53.574;9.976;2023-02-26T15:03:44;3.40;;;1.20;;
14748;SDS011;7466;53.574;9.976;2023-02-26T15:06:30;4.50;;;1.20;;
14748;SDS011;7466;53.574;9.976;2023-02-26T15:09:13;2.40;;;1.07;;
14748;SDS011;7466;53.574;9.976;2023-02-26T15:12:02;3.17;;;1.20;;
14748;SDS011;7466;53.574;9.976;2023-02-26T15:14:55;2.67;;;1.10;;
14748;SDS011;7466;53.574;9.976;2023-02-26T15:17:46;5.70;;;1.40;;
14748;SDS011;7466;53.574;9.976;2023-02-26T15:20:26;4.43;;;1.57;;
14748;SDS011;7466;53.574;9.976;2023-02-26T15:23:17;2.93;;;1.30;;
14748;SDS011;7466;53.574;9.976;2023-02-26T15:26:00;12.10;;;1.70;;
14748;SDS011;7466;53.574;9.976;2023-02-26T15:28:31;4.13;;;1.53;;
14748;SDS011;7466;53.574;9.976;2023-02-26T15:31:01;2.00;;;1.40;;
14748;SDS011;7466;53.574;9.976;2023-02-26T15:33:30;4.10;;;1.50;;
14748;SDS011;7466;53.574;9.976;2023-02-26T15:35:58;2.77;;;1.30;;
14748;SDS011;7466;53.574;9.976;2023-02-26T15:38:26;2.80;;;1.30;;
14748;SDS011;7466;53.574;9.976;2023-02-26T15:40:54;2.23;;;1.47;;
14748;SDS011;7466;53.574;9.976;2023-02-26T15:43:27;1.70;;;1.47;;
14748;SDS011;7466;53.574;9.976;2023-02-26T15:45:55;1.80;;;1.40;;
14748;SDS011;7466;53.574;9.976;2023-02-26T15:48:25;3.87;;;1.50;;
14748;SDS011;7466;53.574;9.976;2023-02-26T15:50:55;1.97;;;1.33;;
14748;SDS011;7466;53.574;9.976;2023-02-26T15:53:27;2.53;;;1.70;;
14748;SDS011;7466;53.574;9.976;2023-02-26T15:55:57;6.20;;;1.70;;